createdAt,value
2018-06-23T00:02:19.667Z,90.10
2018-06-23T00:04:48.264Z,89.60
2018-06-23T00:07:16.856Z,90.40
2018-06-23T00:09:45.474Z,88.60
2018-06-23T00:12:14.047Z,86.40
2018-06-23T00:14:42.732Z,87.70
2018-06-23T00:17:11.369Z,86.70
2018-06-23T00:19:39.942Z,86.90
2018-06-23T00:22:08.600Z,87.50
2018-06-23T00:24:37.547Z,88.10
2018-06-23T00:27:06.181Z,89.70
2018-06-23T00:29:34.851Z,91.10
2018-06-23T00:32:03.510Z,90.90
2018-06-23T00:34:32.271Z,90.60
2018-06-23T00:37:00.891Z,90.70
2018-06-23T00:39:29.543Z,90.10
2018-06-23T00:41:58.161Z,90.60
2018-06-23T00:44:26.717Z,90.80
2018-06-23T00:46:55.261Z,90.40
2018-06-23T00:49:23.859Z,90.40
2018-06-23T00:51:52.430Z,90.30
2018-06-23T00:54:21.020Z,89.00
2018-06-23T00:56:49.653Z,84.40
2018-06-23T00:59:29.195Z,84.60
2018-06-23T01:01:57.766Z,84.30
2018-06-23T01:04:36.186Z,84.10
2018-06-23T01:07:05.087Z,84.40
2018-06-23T01:09:33.727Z,85.10
2018-06-23T01:12:02.307Z,85.90
2018-06-23T01:14:30.923Z,85.80
2018-06-23T01:16:59.566Z,85.90
2018-06-23T01:19:28.204Z,87.20
2018-06-23T01:21:57.142Z,89.20
2018-06-23T01:24:26.616Z,86.50
2018-06-23T01:26:55.217Z,86.80
2018-06-23T01:29:23.761Z,87.10
2018-06-23T01:31:52.405Z,87.40
2018-06-23T01:34:21.290Z,86.80
2018-06-23T01:36:50.053Z,88.00
2018-06-23T01:39:18.650Z,87.90
2018-06-23T01:41:47.189Z,87.50
2018-06-23T01:44:15.998Z,87.30
2018-06-23T01:46:44.625Z,87.30
2018-06-23T01:49:13.157Z,87.40
2018-06-23T01:51:41.725Z,87.40
2018-06-23T01:54:10.358Z,87.90
2018-06-23T01:56:38.933Z,87.70
2018-06-23T01:59:07.582Z,87.60
2018-06-23T02:01:36.190Z,87.60
2018-06-23T02:04:04.930Z,87.90
2018-06-23T02:06:33.619Z,87.90
2018-06-23T02:09:02.215Z,88.10
2018-06-23T02:11:30.800Z,88.50
2018-06-23T02:14:04.677Z,89.00
2018-06-23T02:16:38.551Z,89.30
2018-06-23T02:19:12.323Z,89.50
2018-06-23T02:21:46.081Z,89.50
2018-06-23T02:24:19.890Z,88.90
2018-06-23T02:26:53.770Z,88.50
2018-06-23T02:29:27.519Z,88.70
2018-06-23T02:32:01.483Z,88.80
2018-06-23T02:34:35.187Z,88.70
2018-06-23T02:37:03.773Z,88.40
2018-06-23T02:39:32.439Z,88.70
2018-06-23T02:42:01.002Z,89.20
2018-06-23T02:44:34.952Z,89.60
2018-06-23T02:47:03.542Z,90.10
2018-06-23T02:49:32.100Z,90.00
2018-06-23T02:52:00.784Z,90.00
2018-06-23T02:54:29.541Z,90.50
2018-06-23T02:56:58.132Z,90.70
2018-06-23T02:59:26.763Z,90.50
2018-06-23T03:01:55.388Z,90.60
2018-06-23T03:04:23.974Z,90.30
2018-06-23T03:06:52.588Z,90.10
2018-06-23T03:09:21.234Z,90.00
2018-06-23T03:11:49.827Z,90.00
2018-06-23T03:14:18.444Z,90.00
2018-06-23T03:16:47.017Z,90.10
2018-06-23T03:19:15.658Z,90.90
2018-06-23T03:21:44.310Z,90.70
2018-06-23T03:24:13.117Z,90.40
2018-06-23T03:26:41.790Z,90.10
2018-06-23T03:29:10.424Z,90.30
2018-06-23T03:31:38.991Z,90.40
2018-06-23T03:34:12.903Z,92.10
2018-06-23T03:36:41.536Z,92.20
2018-06-23T03:39:11.254Z,93.00
2018-06-23T03:41:40.036Z,92.90
2018-06-23T03:44:08.615Z,94.30
2018-06-23T03:46:37.200Z,94.80
2018-06-23T03:49:05.879Z,94.70
2018-06-23T03:51:35.002Z,99.90
2018-06-23T03:54:03.636Z,92.00
2018-06-23T03:56:32.174Z,92.00
2018-06-23T03:59:00.897Z,92.40
2018-06-23T04:01:29.490Z,92.70
2018-06-23T04:04:03.213Z,92.70
2018-06-23T04:06:31.891Z,92.60
2018-06-23T04:09:00.484Z,92.40
2018-06-23T04:11:29.103Z,92.00
2018-06-23T04:13:57.962Z,92.00
2018-06-23T04:16:26.595Z,91.90
2018-06-23T04:18:57.436Z,92.10
2018-06-23T04:21:26.967Z,92.20
2018-06-23T04:23:55.631Z,92.60
2018-06-23T04:26:24.357Z,92.50
2018-06-23T04:28:52.954Z,92.60
2018-06-23T04:33:49.744Z,93.40
2018-06-23T04:36:18.326Z,94.90
2018-06-23T04:38:46.842Z,95.30
2018-06-23T04:41:15.412Z,95.30
2018-06-23T04:43:44.371Z,95.30
2018-06-23T04:46:12.981Z,95.30
2018-06-23T04:48:41.587Z,95.40
2018-06-23T04:51:10.213Z,95.40
2018-06-23T04:53:46.253Z,95.60
2018-06-23T04:56:15.181Z,95.20
2018-06-23T04:58:43.799Z,95.30
2018-06-23T05:01:12.614Z,95.20
2018-06-23T05:03:41.242Z,95.00
2018-06-23T05:06:09.910Z,94.70
2018-06-23T05:08:38.994Z,94.60
2018-06-23T05:11:08.014Z,94.90
2018-06-23T05:13:36.610Z,95.00
2018-06-23T05:16:05.762Z,94.90
2018-06-23T05:18:34.414Z,94.90
2018-06-23T05:21:03.776Z,94.80
2018-06-23T05:23:32.883Z,94.60
2018-06-23T05:26:01.624Z,94.70
2018-06-23T05:28:30.193Z,94.80
2018-06-23T05:30:58.957Z,95.00
2018-06-23T05:33:27.825Z,95.20
2018-06-23T05:35:56.532Z,95.20
2018-06-23T05:38:25.260Z,95.40
2018-06-23T05:40:53.956Z,95.60
2018-06-23T05:43:22.587Z,95.70
2018-06-23T05:45:51.159Z,95.70
2018-06-23T05:48:19.730Z,95.30
2018-06-23T05:50:48.351Z,95.80
2018-06-23T05:53:17.035Z,95.30
2018-06-23T05:55:45.724Z,95.40
2018-06-23T05:58:14.404Z,95.30
2018-06-23T06:00:43.151Z,95.60
2018-06-23T06:03:11.737Z,95.50
2018-06-23T06:05:40.392Z,95.40
2018-06-23T06:08:08.965Z,95.50
2018-06-23T06:10:37.598Z,96.00
2018-06-23T06:13:06.508Z,96.40
2018-06-23T06:15:35.089Z,96.30
2018-06-23T06:18:03.763Z,96.30
2018-06-23T06:20:32.392Z,96.40
2018-06-23T06:23:01.036Z,96.30
2018-06-23T06:25:29.958Z,96.60
2018-06-23T06:27:58.545Z,96.90
2018-06-23T06:30:27.207Z,96.90
2018-06-23T06:32:55.830Z,97.00
2018-06-23T06:35:24.677Z,97.20
2018-06-23T06:37:53.329Z,97.10
2018-06-23T06:40:21.988Z,97.10
2018-06-23T06:42:50.561Z,96.80
2018-06-23T06:45:19.225Z,96.20
2018-06-23T06:47:47.788Z,96.10
2018-06-23T06:50:16.446Z,96.50
2018-06-23T06:52:45.124Z,96.70
2018-06-23T06:55:13.836Z,96.70
2018-06-23T06:57:42.502Z,96.70
2018-06-23T07:00:11.236Z,96.80
2018-06-23T07:02:39.879Z,96.40
2018-06-23T07:05:08.554Z,96.60
2018-06-23T07:07:37.169Z,96.40
2018-06-23T07:10:05.835Z,96.40
2018-06-23T07:12:34.457Z,96.20
2018-06-23T07:15:15.864Z,96.40
2018-06-23T07:17:44.899Z,96.20
2018-06-23T07:20:14.242Z,96.20
2018-06-23T07:22:43.491Z,95.90
2018-06-23T07:25:12.186Z,95.00
2018-06-23T07:27:40.767Z,94.40
2018-06-23T07:30:09.793Z,93.20
2018-06-23T07:32:38.394Z,92.10
2018-06-23T07:35:07.279Z,90.50
2018-06-23T07:37:35.902Z,88.00
2018-06-23T07:40:04.548Z,85.20
2018-06-23T07:42:33.155Z,83.60
2018-06-23T07:45:02.124Z,85.10
2018-06-23T07:47:30.789Z,81.40
2018-06-23T07:49:59.329Z,82.10
2018-06-23T07:52:27.908Z,83.70
2018-06-23T07:54:56.496Z,82.40
2018-06-23T07:57:25.611Z,90.00
2018-06-23T07:59:54.226Z,87.70
2018-06-23T08:02:22.861Z,90.40
2018-06-23T08:04:51.588Z,90.50
2018-06-23T08:07:20.167Z,91.10
2018-06-23T08:09:48.741Z,90.60
2018-06-23T08:12:17.297Z,90.00
2018-06-23T08:14:46.229Z,90.10
2018-06-23T08:17:14.799Z,89.70
2018-06-23T08:19:43.345Z,87.00
2018-06-23T08:22:11.863Z,87.10
2018-06-23T08:24:45.559Z,85.70
2018-06-23T08:27:14.088Z,85.40
2018-06-23T08:29:42.696Z,86.60
2018-06-23T08:32:11.254Z,84.90
2018-06-23T08:34:40.007Z,85.30
2018-06-23T08:37:08.620Z,84.10
2018-06-23T08:39:37.178Z,82.80
2018-06-23T08:42:05.770Z,82.40
2018-06-23T08:44:34.441Z,83.20
2018-06-23T08:47:03.183Z,82.00
2018-06-23T08:49:31.851Z,80.70
2018-06-23T08:52:00.462Z,82.00
2018-06-23T08:54:29.073Z,81.40
2018-06-23T08:56:57.748Z,80.00
2018-06-23T08:59:26.333Z,79.50
2018-06-23T09:01:55.033Z,81.40
2018-06-23T09:04:23.665Z,81.50
2018-06-23T09:06:52.324Z,80.30
2018-06-23T09:09:20.960Z,78.00
2018-06-23T09:11:49.618Z,79.40
2018-06-23T09:14:18.514Z,78.80
2018-06-23T09:16:47.154Z,81.30
2018-06-23T09:19:15.723Z,81.10
2018-06-23T09:21:44.372Z,81.80
2018-06-23T09:24:14.097Z,80.80
2018-06-23T09:26:42.712Z,80.10
2018-06-23T09:29:11.391Z,79.30
2018-06-23T09:31:39.956Z,79.20
2018-06-23T09:34:08.598Z,79.00
2018-06-23T09:36:37.265Z,77.40
2018-06-23T09:39:08.334Z,79.00
2018-06-23T09:41:36.995Z,80.10
2018-06-23T09:44:06.241Z,80.60
2018-06-23T09:46:35.040Z,77.90
2018-06-23T09:49:03.800Z,77.30
2018-06-23T09:51:32.574Z,79.10
2018-06-23T09:54:06.282Z,78.60
2018-06-23T09:56:35.032Z,80.90
2018-06-23T09:59:03.835Z,78.70
2018-06-23T10:01:32.544Z,77.70
2018-06-23T10:04:01.457Z,77.90
2018-06-23T10:06:30.273Z,76.30
2018-06-23T10:08:59.275Z,77.00
2018-06-23T10:11:28.028Z,75.90
2018-06-23T10:13:56.787Z,75.50
2018-06-23T10:16:25.464Z,76.80
2018-06-23T10:18:54.113Z,76.30
2018-06-23T10:21:22.876Z,77.10
2018-06-23T10:23:51.711Z,77.10
2018-06-23T10:26:20.876Z,75.00
2018-06-23T10:28:49.595Z,74.20
2018-06-23T10:31:19.202Z,74.00
2018-06-23T10:33:48.106Z,71.60
2018-06-23T10:36:16.911Z,71.70
2018-06-23T10:38:45.671Z,70.70
2018-06-23T10:41:14.308Z,72.60
2018-06-23T10:43:43.051Z,70.80
2018-06-23T10:46:11.744Z,70.30
2018-06-23T10:48:40.488Z,69.50
2018-06-23T10:51:09.278Z,70.20
2018-06-23T10:53:38.035Z,68.30
2018-06-23T10:56:07.844Z,68.30
2018-06-23T10:58:36.571Z,68.70
2018-06-23T11:01:05.500Z,65.70
2018-06-23T11:03:34.388Z,65.00
2018-06-23T11:06:03.480Z,64.70
2018-06-23T11:08:33.602Z,64.50
2018-06-23T11:11:02.654Z,64.10
2018-06-23T11:13:36.728Z,64.20
2018-06-23T11:16:05.814Z,64.30
2018-06-23T11:18:34.655Z,63.30
2018-06-23T11:21:04.404Z,64.00
2018-06-23T11:23:34.232Z,62.40
2018-06-23T11:26:03.122Z,62.40
2018-06-23T11:28:32.039Z,61.90
2018-06-23T11:31:01.267Z,63.40
2018-06-23T11:33:30.072Z,62.10
2018-06-23T11:35:59.208Z,62.40
2018-06-23T11:38:28.030Z,62.90
2018-06-23T11:40:56.857Z,61.50
2018-06-23T11:43:39.585Z,60.30
2018-06-23T11:46:09.037Z,61.20
2018-06-23T11:48:38.979Z,63.20
2018-06-23T11:51:07.892Z,63.20
2018-06-23T11:53:36.651Z,62.60
2018-06-23T11:56:05.981Z,62.50
2018-06-23T11:58:34.882Z,59.30
2018-06-23T12:01:03.978Z,57.80
2018-06-23T12:03:42.090Z,61.70
2018-06-23T12:06:10.891Z,61.80
2018-06-23T12:08:39.821Z,61.20
2018-06-23T12:11:08.534Z,61.60
2018-06-23T12:13:44.599Z,61.50
2018-06-23T12:16:13.282Z,60.60
2018-06-23T12:18:42.030Z,61.80
2018-06-23T12:21:11.055Z,59.70
2018-06-23T12:23:40.057Z,60.40
2018-06-23T12:26:08.819Z,59.90
2018-06-23T12:28:38.992Z,60.00
2018-06-23T12:31:08.257Z,58.30
2018-06-23T12:33:42.098Z,58.00
2018-06-23T12:36:10.995Z,57.20
2018-06-23T12:38:39.675Z,57.10
2018-06-23T12:41:09.685Z,56.70
2018-06-23T12:43:38.523Z,57.30
2018-06-23T12:46:08.026Z,57.00
2018-06-23T12:48:40.933Z,57.10
2018-06-23T12:51:16.895Z,56.70
2018-06-23T12:59:31.200Z,56.50
2018-06-23T13:02:00.801Z,56.60
2018-06-23T13:04:35.355Z,57.20
2018-06-23T13:07:04.031Z,57.80
2018-06-23T13:09:32.746Z,57.40
2018-06-23T13:12:01.512Z,57.40
2018-06-23T13:14:30.407Z,58.60
2018-06-23T13:16:59.415Z,58.30
2018-06-23T13:19:28.259Z,56.50
2018-06-23T13:21:57.363Z,57.30
2018-06-23T13:24:26.388Z,57.40
2018-06-23T13:26:55.157Z,57.00
2018-06-23T13:29:24.716Z,56.60
2018-06-23T13:31:53.967Z,56.70
2018-06-23T13:37:35.691Z,57.10
2018-06-23T13:40:11.589Z,57.80
2018-06-23T13:42:56.602Z,55.60
2018-06-23T13:45:44.321Z,58.20
2018-06-23T13:54:43.512Z,58.30
2018-06-23T13:57:12.344Z,57.60
2018-06-23T14:05:43.251Z,58.30
2018-06-23T14:32:18.841Z,58.10
2018-06-23T14:35:04.704Z,59.00
2018-06-23T14:37:35.090Z,59.40
2018-06-23T14:40:04.062Z,58.40
2018-06-23T14:42:32.812Z,58.50
2018-06-23T14:45:02.078Z,58.40
2018-06-23T14:47:38.263Z,57.50
2018-06-23T14:50:09.818Z,57.80
2018-06-23T14:52:38.897Z,58.10
2018-06-23T14:55:13.021Z,58.10
2018-06-23T14:57:41.989Z,57.00
2018-06-23T15:02:46.624Z,57.40
2018-06-23T15:05:15.498Z,56.90
2018-06-23T15:07:44.208Z,56.60
2018-06-23T15:10:23.974Z,56.30
2018-06-23T15:13:03.651Z,57.10
2018-06-23T15:15:32.658Z,56.60
2018-06-23T15:18:01.345Z,57.10
2018-06-23T15:20:30.058Z,57.20
2018-06-23T15:22:58.766Z,57.60
2018-06-23T15:25:27.719Z,57.40
2018-06-23T15:27:56.425Z,56.30
2018-06-23T15:30:25.184Z,56.30
2018-06-23T15:32:53.912Z,56.90
2018-06-23T15:35:27.768Z,57.80
2018-06-23T15:37:56.496Z,57.10
2018-06-23T15:40:25.344Z,57.20
2018-06-23T15:42:54.047Z,57.10
2018-06-23T15:45:22.805Z,58.10
2018-06-23T15:47:51.539Z,58.00
2018-06-23T15:50:20.235Z,58.40
2018-06-23T15:52:49.004Z,57.50
2018-06-23T15:55:17.828Z,57.00
2018-06-23T15:57:46.567Z,58.10
2018-06-23T16:00:15.759Z,57.70
2018-06-23T16:02:44.504Z,57.20
2018-06-23T16:05:13.401Z,57.30
2018-06-23T16:07:42.056Z,57.40
2018-06-23T16:10:18.313Z,58.10
2018-06-23T16:12:47.076Z,56.50
2018-06-23T16:15:15.942Z,57.30
2018-06-23T16:17:44.665Z,57.40
2018-06-23T16:20:13.578Z,57.50
2018-06-23T16:22:42.345Z,57.70
2018-06-23T16:25:11.236Z,57.10
2018-06-23T16:27:39.951Z,56.90
2018-06-23T16:30:08.799Z,57.30
2018-06-23T16:32:37.665Z,57.10
2018-06-23T16:35:06.921Z,56.70
2018-06-23T16:37:35.831Z,56.50
2018-06-23T16:40:04.587Z,56.60
2018-06-23T16:42:33.259Z,56.60
2018-06-23T16:45:07.150Z,56.80
2018-06-23T16:47:35.832Z,57.20
2018-06-23T16:50:04.691Z,56.70
2018-06-23T16:52:33.456Z,55.40
2018-06-23T16:55:02.134Z,56.00
2018-06-23T16:57:30.831Z,55.20
2018-06-23T16:59:59.543Z,54.90
2018-06-23T17:02:28.262Z,55.30
2018-06-23T17:04:57.247Z,55.60
2018-06-23T17:07:26.004Z,55.90
2018-06-23T17:09:54.679Z,56.30
2018-06-23T17:12:23.351Z,57.20
2018-06-23T17:14:52.215Z,56.80
2018-06-23T17:17:20.908Z,57.40
2018-06-23T17:19:49.583Z,58.10
2018-06-23T17:22:18.176Z,57.70
2018-06-23T17:24:46.963Z,57.20
2018-06-23T17:27:15.754Z,57.80
2018-06-23T17:29:44.353Z,57.70
2018-06-23T17:32:13.118Z,57.80
2018-06-23T17:34:41.803Z,57.80
2018-06-23T17:37:10.448Z,57.80
2018-06-23T17:39:39.127Z,58.40
2018-06-23T17:42:07.828Z,58.20
2018-06-23T17:44:36.534Z,59.20
2018-06-23T17:47:05.347Z,59.80
2018-06-23T17:49:34.039Z,59.00
2018-06-23T17:52:02.724Z,59.40
2018-06-23T17:54:31.515Z,60.20
2018-06-23T17:57:00.194Z,60.00
2018-06-23T17:59:28.858Z,61.30
2018-06-23T18:01:57.551Z,60.80
2018-06-23T18:04:26.567Z,60.30
2018-06-23T18:06:55.251Z,60.00
2018-06-23T18:09:23.865Z,60.10
2018-06-23T18:11:52.591Z,59.90
2018-06-23T18:14:21.372Z,59.50
2018-06-23T18:16:50.039Z,60.00
2018-06-23T18:19:18.706Z,60.00
2018-06-23T18:21:47.410Z,60.10
2018-06-23T18:24:16.455Z,59.80
2018-06-23T18:26:45.162Z,59.70
2018-06-23T18:29:13.885Z,59.50
2018-06-23T18:31:42.545Z,59.60
2018-06-23T18:34:11.231Z,59.80
2018-06-23T18:36:39.960Z,59.90
2018-06-23T18:39:09.771Z,59.90
2018-06-23T18:41:38.478Z,60.40
2018-06-23T18:44:07.752Z,60.20
2018-06-23T18:46:36.902Z,61.20
2018-06-23T18:49:05.857Z,61.10
2018-06-23T18:51:34.555Z,60.70
2018-06-23T18:54:03.350Z,61.00
2018-06-23T18:56:32.035Z,61.10
2018-06-23T18:59:00.666Z,61.50
2018-06-23T19:01:29.380Z,63.30
2018-06-23T19:03:58.156Z,62.30
2018-06-23T19:06:26.880Z,63.60
2018-06-23T19:08:55.746Z,64.20
2018-06-23T19:11:24.305Z,62.00
2018-06-23T19:13:52.960Z,61.60
2018-06-23T19:16:21.823Z,62.00
2018-06-23T19:18:50.581Z,62.70
2018-06-23T19:21:19.234Z,63.40
2018-06-23T19:23:47.874Z,63.60
2018-06-23T19:26:16.698Z,63.30
2018-06-23T19:28:45.368Z,63.70
2018-06-23T19:31:14.065Z,64.70
2018-06-23T19:33:47.852Z,63.30
2018-06-23T19:36:16.800Z,64.50
2018-06-23T19:38:45.517Z,65.90
2018-06-23T19:41:24.464Z,66.60
2018-06-23T19:43:53.089Z,68.00
2018-06-23T19:46:21.705Z,67.70
2018-06-23T19:48:50.583Z,68.60
2018-06-23T19:51:19.298Z,68.90
2018-06-23T19:53:48.226Z,69.20
2018-06-23T19:56:16.999Z,69.50
2018-06-23T19:58:45.712Z,69.20
2018-06-23T20:01:14.358Z,69.60
2018-06-23T20:03:43.134Z,69.40
2018-06-23T20:06:11.845Z,69.70
2018-06-23T20:08:40.543Z,69.40
2018-06-23T20:11:09.266Z,70.30
2018-06-23T20:13:38.006Z,69.30
2018-06-23T20:16:06.708Z,70.20
2018-06-23T20:18:35.481Z,70.30
2018-06-23T20:21:04.406Z,70.60
2018-06-23T20:23:33.138Z,71.30
2018-06-23T20:26:20.508Z,71.70
2018-06-23T20:28:51.957Z,72.00
2018-06-23T20:31:26.760Z,71.80
2018-06-23T20:34:14.967Z,71.70
2018-06-23T20:36:47.054Z,72.20
2018-06-23T20:39:24.195Z,72.20
2018-06-23T20:41:53.984Z,72.30
2018-06-23T20:44:24.661Z,74.00
2018-06-23T20:46:53.989Z,74.60
2018-06-23T20:49:23.123Z,75.50
2018-06-23T21:02:19.263Z,79.10
2018-06-23T21:04:48.172Z,80.00
2018-06-23T21:22:28.157Z,79.30
2018-06-23T21:37:37.665Z,79.10
2018-06-23T21:40:22.140Z,79.40
2018-06-23T21:53:11.213Z,81.40
2018-06-23T22:07:39.234Z,85.70
2018-06-23T22:25:31.942Z,85.60
2018-06-23T22:36:23.014Z,86.90
2018-06-23T22:38:51.983Z,87.40
2018-06-23T22:41:24.489Z,87.80
2018-06-23T22:52:53.704Z,88.10
2018-06-23T22:58:26.620Z,89.60
2018-06-23T23:04:12.082Z,88.60
2018-06-23T23:06:58.031Z,89.10
2018-06-23T23:09:40.772Z,90.00
2018-06-23T23:12:14.495Z,89.70
2018-06-23T23:17:47.541Z,88.90
2018-06-23T23:20:22.952Z,89.40
2018-06-23T23:23:00.398Z,90.10
2018-06-23T23:25:32.431Z,88.90
2018-06-23T23:28:13.226Z,88.80
2018-06-23T23:30:48.421Z,88.30
2018-06-23T23:33:27.457Z,88.80
2018-06-23T23:36:07.326Z,88.60
2018-06-23T23:38:48.960Z,90.00
2018-06-23T23:41:33.863Z,90.30
2018-06-23T23:44:18.639Z,90.20
2018-06-23T23:49:29.231Z,90.60
2018-06-23T23:52:08.430Z,90.20
2018-06-23T23:54:45.149Z,89.20
2018-06-23T23:57:22.527Z,89.40
2018-06-23T23:59:53.573Z,89.90
